Time;durP1;ratioP1;P1;durP2;ratioP2;P2;SDS_P1;SDS_P2;PMS_P1;PMS_P2;Temp;Humidity;BMP_temperature;BMP_pressure;BME280_temperature;BME280_humidity;BME280_pressure;Samples;Min_cycle;Max_cycle;Signal;HPM_P1;HPM_P2
2021/01/11 00:02:07;;;;;;;1.23;0.40;;;2.40;74.10;;;;;;4990617;28;20030;-58
2021/01/11 00:04:32;;;;;;;1.55;0.40;;;2.40;72.80;;;;;;4974145;28;20387;-58
2021/01/11 00:06:58;;;;;;;1.30;0.50;;;2.40;74.40;;;;;;4990439;28;20137;-58
2021/01/11 00:09:24;;;;;;;1.50;0.57;;;2.30;74.80;;;;;;4990437;28;20045;-57
2021/01/11 00:11:52;;;;;;;2.83;0.93;;;2.30;73.90;;;;;;4990756;28;20088;-59
2021/01/11 00:14:18;;;;;;;1.42;0.73;;;2.40;74.50;;;;;;5010201;28;20033;-57
2021/01/11 00:16:44;;;;;;;1.40;0.55;;;2.50;71.80;;;;;;5010871;28;20080;-57
2021/01/11 00:19:09;;;;;;;2.28;0.50;;;2.50;74.40;;;;;;4993002;28;20030;-53
2021/01/11 00:21:35;;;;;;;1.30;0.60;;;2.40;74.50;;;;;;4991497;28;20034;-57
2021/01/11 00:24:01;;;;;;;2.30;0.65;;;2.40;74.40;;;;;;4989820;28;20035;-56
2021/01/11 00:26:27;;;;;;;2.17;0.68;;;2.50;74.00;;;;;;4991116;28;20089;-58
2021/01/11 00:28:53;;;;;;;1.38;0.50;;;2.60;70.00;;;;;;4991416;28;20038;-58
2021/01/11 00:31:25;;;;;;;1.50;0.45;;;2.70;72.50;;;;;;4989987;28;20046;-57
2021/01/11 00:33:52;;;;;;;1.60;0.63;;;2.60;71.80;;;;;;4991408;28;20038;-55
2021/01/11 00:36:19;;;;;;;1.38;0.50;;;2.70;70.50;;;;;;4993047;28;20034;-57
2021/01/11 00:38:46;;;;;;;2.42;0.80;;;2.70;70.00;;;;;;4991244;28;20030;-58
2021/01/11 00:41:19;;;;;;;1.95;0.73;;;2.60;69.50;;;;;;4993090;28;20505;-57
2021/01/11 00:43:45;;;;;;;2.13;0.80;;;2.80;69.00;;;;;;5010452;28;20041;-55
2021/01/11 00:46:23;;;;;;;2.10;0.70;;;2.70;69.70;;;;;;4997749;28;20045;-57
2021/01/11 00:48:49;;;;;;;1.65;0.70;;;2.70;69.30;;;;;;5003955;28;20046;-57
2021/01/11 00:51:15;;;;;;;2.20;0.68;;;2.70;69.00;;;;;;4997760;28;20034;-54
2021/01/11 00:53:44;;;;;;;2.03;0.80;;;2.70;68.30;;;;;;4990729;28;20092;-56
2021/01/11 00:56:16;;;;;;;1.63;0.77;;;2.70;68.50;;;;;;4998981;28;20482;-57
2021/01/11 00:58:43;;;;;;;4.35;0.60;;;2.90;66.90;;;;;;5010700;28;20041;-56
2021/01/11 01:01:10;;;;;;;1.63;0.68;;;2.80;67.30;;;;;;4999601;28;20030;-56
2021/01/11 01:03:36;;;;;;;2.42;0.70;;;2.80;68.00;;;;;;4990591;28;20437;-58
2021/01/11 01:06:04;;;;;;;2.13;0.80;;;2.80;68.40;;;;;;4995358;28;20077;-53
2021/01/11 01:08:31;;;;;;;2.08;0.75;;;2.80;68.40;;;;;;5010210;28;20125;-55
2021/01/11 01:10:57;;;;;;;2.28;0.70;;;2.70;68.40;;;;;;5001908;28;20038;-54
2021/01/11 01:13:23;;;;;;;2.65;0.80;;;2.70;68.60;;;;;;4990323;28;20108;-54
2021/01/11 01:15:49;;;;;;;3.10;1.20;;;2.70;68.90;;;;;;4989244;28;20030;-57
2021/01/11 01:18:15;;;;;;;2.28;0.93;;;2.70;68.10;;;;;;4990514;28;20045;-57
2021/01/11 01:20:40;;;;;;;1.13;0.50;;;2.70;67.70;;;;;;4991053;28;20034;-57
2021/01/11 01:23:06;;;;;;;2.55;0.70;;;2.70;69.50;;;;;;5009743;28;20033;-55
2021/01/11 01:25:32;;;;;;;1.60;1.10;;;2.60;68.90;;;;;;5007051;28;20034;-56
2021/01/11 01:27:58;;;;;;;1.25;0.50;;;2.70;68.40;;;;;;4990531;28;20481;-53
2021/01/11 01:30:23;;;;;;;1.83;0.80;;;2.70;68.60;;;;;;4990251;28;20549;-52
2021/01/11 01:32:49;;;;;;;2.10;0.88;;;2.70;69.20;;;;;;4989237;28;20446;-53
2021/01/11 01:35:15;;;;;;;3.90;0.65;;;2.70;68.30;;;;;;4990353;28;20038;-56
2021/01/11 01:37:41;;;;;;;1.55;0.68;;;2.80;67.70;;;;;;4990909;28;20069;-55
2021/01/11 01:40:07;;;;;;;1.85;0.60;;;2.80;67.10;;;;;;4989036;28;20057;-57
2021/01/11 01:42:34;;;;;;;1.20;0.50;;;2.80;67.60;;;;;;5003273;28;20038;-56
2021/01/11 01:44:59;;;;;;;1.63;0.60;;;2.70;68.30;;;;;;4989819;28;20069;-57
2021/01/11 01:47:26;;;;;;;1.70;0.65;;;2.70;68.40;;;;;;4987414;28;20108;-57
2021/01/11 01:49:52;;;;;;;1.95;0.70;;;2.70;68.50;;;;;;4972326;28;20486;-57
2021/01/11 01:52:19;;;;;;;1.98;0.60;;;2.70;68.60;;;;;;5004138;28;20065;-56
2021/01/11 01:54:48;;;;;;;1.50;0.50;;;2.60;68.70;;;;;;5009360;28;20505;-52
2021/01/11 01:57:14;;;;;;;2.42;0.95;;;2.60;69.00;;;;;;4992302;28;20532;-56
2021/01/11 01:59:42;;;;;;;1.33;0.55;;;2.50;69.80;;;;;;4989938;28;20035;-56
2021/01/11 02:02:14;;;;;;;3.13;0.70;;;2.50;70.00;;;;;;4987301;28;20114;-55
2021/01/11 02:04:43;;;;;;;2.15;0.85;;;2.50;68.40;;;;;;4989557;28;20054;-56
2021/01/11 02:07:21;;;;;;;2.08;0.60;;;2.50;68.60;;;;;;4987839;28;20030;-53
2021/01/11 02:10:08;;;;;;;2.67;0.80;;;2.40;69.70;;;;;;4989521;28;20053;-55
2021/01/11 02:12:57;;;;;;;1.55;0.45;;;2.40;69.90;;;;;;4987683;28;20053;-56
2021/01/11 02:15:34;;;;;;;1.35;0.50;;;2.40;68.20;;;;;;4943490;28;20030;-56
2021/01/11 02:18:00;;;;;;;;;;;2.50;70.10;;;;;;4989503;28;20043;-58
2021/01/11 02:20:45;;;;;;;;;;;2.40;69.10;;;;;;4990181;28;20004;-58
2021/01/11 02:23:52;;;;;;;1.52;0.50;;;2.30;71.90;;;;;;4989373;28;19917;-57
2021/01/11 02:26:20;;;;;;;2.20;0.60;;;2.30;69.40;;;;;;4987344;28;20030;-54
2021/01/11 02:29:27;;;;;;;2.38;0.75;;;2.30;69.40;;;;;;4990842;28;20437;-57
2021/01/11 02:31:56;;;;;;;1.42;0.60;;;2.30;70.70;;;;;;4990200;28;20034;-54
2021/01/11 02:34:24;;;;;;;1.38;0.57;;;2.20;71.70;;;;;;4990290;28;20529;-57
2021/01/11 02:36:51;;;;;;;2.67;0.60;;;2.20;70.80;;;;;;4988226;28;20038;-54
2021/01/11 02:39:17;;;;;;;2.13;0.68;;;2.30;70.30;;;;;;4989255;28;20056;-55
2021/01/11 02:41:43;;;;;;;1.88;0.40;;;2.30;69.00;;;;;;5154069;22;20591;-59
2021/01/11 02:44:09;;;;;;;2.58;0.90;;;2.30;71.00;;;;;;5035768;28;20037;-57
2021/01/11 02:46:38;;;;;;;1.25;0.40;;;2.20;69.60;;;;;;5026201;28;20176;-57
2021/01/11 02:49:37;;;;;;;1.88;0.80;;;2.20;69.10;;;;;;5027571;28;20115;-55
2021/01/11 02:52:08;;;;;;;1.75;0.60;;;2.30;68.90;;;;;;5016005;28;20049;-57
2021/01/11 02:54:38;;;;;;;1.58;0.40;;;2.30;69.40;;;;;;5026197;28;20038;-55
2021/01/11 02:57:15;;;;;;;2.00;0.70;;;2.30;69.20;;;;;;5028233;28;20045;-57
2021/01/11 02:59:46;;;;;;;;;;;2.30;68.30;;;;;;5027605;28;20500;-57
2021/01/11 03:02:16;;;;;;;8.35;3.05;;;2.30;70.70;;;;;;5028138;28;19909;-56
2021/01/11 03:04:42;;;;;;;7.53;2.53;;;2.20;69.80;;;;;;5027275;28;20513;-56
2021/01/11 03:07:09;;;;;;;2.00;0.80;;;2.20;70.10;;;;;;5028182;28;20393;-56
2021/01/11 03:09:57;;;;;;;1.48;0.70;;;2.20;68.80;;;;;;5026961;28;20049;-55
2021/01/11 03:12:23;;;;;;;1.85;0.50;;;2.30;69.40;;;;;;5028076;28;20520;-55
2021/01/11 03:14:49;;;;;;;1.50;0.60;;;2.40;67.60;;;;;;5027095;28;20154;-54
2021/01/11 03:17:15;;;;;;;1.52;0.40;;;2.40;68.20;;;;;;5027934;28;20033;-54
2021/01/11 03:19:40;;;;;;;1.63;0.45;;;2.40;68.30;;;;;;5026898;28;20033;-57
2021/01/11 03:22:06;;;;;;;2.63;0.73;;;2.30;69.70;;;;;;5027825;28;20028;-55
2021/01/11 03:24:32;;;;;;;1.50;0.50;;;2.30;69.90;;;;;;5026897;28;20120;-57
2021/01/11 03:26:59;;;;;;;1.40;0.50;;;2.30;69.00;;;;;;5028163;28;20029;-58
2021/01/11 03:29:25;;;;;;;2.53;0.63;;;2.30;69.20;;;;;;5031004;28;20146;-56
2021/01/11 03:31:51;;;;;;;1.60;0.50;;;2.30;69.80;;;;;;5031861;28;20495;-56
2021/01/11 03:34:16;;;;;;;1.20;0.55;;;2.30;70.00;;;;;;5012733;28;20504;-56
2021/01/11 03:36:43;;;;;;;1.52;0.40;;;2.30;70.30;;;;;;5031399;28;20065;-56
2021/01/11 03:39:10;;;;;;;1.35;0.50;;;2.30;70.60;;;;;;5029735;28;20495;-56
2021/01/11 03:41:46;;;;;;;1.25;0.50;;;2.20;71.60;;;;;;5031156;28;20033;-57
2021/01/11 03:44:12;;;;;;;1.63;0.60;;;2.20;69.50;;;;;;5028347;28;20045;-56
2021/01/11 03:46:38;;;;;;;2.83;0.60;;;2.20;70.60;;;;;;5029862;28;20037;-55
2021/01/11 03:49:04;;;;;;;0.85;0.40;;;2.10;72.60;;;;;;5029927;28;20033;-56
2021/01/11 03:51:30;;;;;;;1.05;0.47;;;2.10;73.00;;;;;;5031359;28;20034;-57
2021/01/11 03:53:56;;;;;;;0.98;0.40;;;2.10;74.60;;;;;;5029953;28;20501;-56
2021/01/11 03:56:22;;;;;;;1.58;0.68;;;2.00;74.00;;;;;;5031433;28;20032;-55
2021/01/11 03:58:48;;;;;;;1.00;0.40;;;2.00;74.20;;;;;;5030325;28;20107;-57
2021/01/11 04:01:14;;;;;;;1.60;0.52;;;2.00;73.80;;;;;;5032620;28;20029;-56
2021/01/11 04:03:40;;;;;;;1.00;0.40;;;2.20;69.70;;;;;;5030292;28;20718;-54
2021/01/11 04:06:07;;;;;;;1.48;0.50;;;2.30;68.20;;;;;;5030940;28;20040;-55
2021/01/11 04:08:33;;;;;;;1.20;0.70;;;2.40;67.70;;;;;;5030192;28;20440;-57
2021/01/11 04:10:58;;;;;;;0.98;0.40;;;2.40;67.90;;;;;;5030827;28;20037;-57
2021/01/11 04:13:24;;;;;;;1.10;0.50;;;2.40;69.70;;;;;;5029733;28;20072;-54
2021/01/11 04:15:50;;;;;;;1.30;0.55;;;2.40;69.50;;;;;;5030599;28;20052;-57
2021/01/11 04:18:16;;;;;;;1.73;0.60;;;2.40;68.90;;;;;;5029411;28;20036;-53
2021/01/11 04:20:42;;;;;;;1.67;0.50;;;2.40;67.70;;;;;;5030675;28;20087;-54
2021/01/11 04:23:07;;;;;;;1.00;0.47;;;2.40;69.50;;;;;;5026545;28;20029;-58
2021/01/11 04:25:33;;;;;;;2.95;0.60;;;2.40;67.50;;;;;;5026488;28;20045;-57
2021/01/11 04:28:03;;;;;;;1.67;0.45;;;2.50;67.30;;;;;;5010765;28;20454;-56
2021/01/11 04:30:29;;;;;;;1.20;0.57;;;2.40;66.30;;;;;;5012891;28;20116;-57
2021/01/11 04:32:55;;;;;;;1.95;0.75;;;2.40;66.60;;;;;;5030424;28;20038;-53
2021/01/11 04:35:23;;;;;;;1.35;0.50;;;2.50;66.60;;;;;;5029595;28;20048;-57
2021/01/11 04:37:48;;;;;;;2.35;0.43;;;2.50;66.50;;;;;;5030564;28;20044;-55
2021/01/11 04:40:14;;;;;;;2.03;0.40;;;2.40;66.70;;;;;;5029868;28;20029;-58
2021/01/11 04:43:02;;;;;;;1.33;0.50;;;2.40;67.30;;;;;;5029730;28;20527;-57
2021/01/11 04:45:28;;;;;;;2.50;0.60;;;2.50;67.20;;;;;;5028955;28;20041;-55
2021/01/11 04:47:55;;;;;;;1.50;0.50;;;2.40;66.90;;;;;;5029183;28;20091;-56
2021/01/11 04:50:22;;;;;;;1.00;0.40;;;2.50;66.30;;;;;;5030052;28;20061;-54
2021/01/11 04:52:49;;;;;;;1.73;0.50;;;2.50;66.00;;;;;;5029495;28;20083;-55
2021/01/11 04:55:15;;;;;;;0.85;0.35;;;2.50;66.30;;;;;;5029977;28;20045;-57
2021/01/11 04:58:02;;;;;;;0.90;0.32;;;2.50;66.80;;;;;;5027642;28;20037;-57
2021/01/11 05:00:29;;;;;;;1.38;0.52;;;2.50;66.20;;;;;;5029799;28;20033;-57
2021/01/11 05:03:09;;;;;;;1.40;0.50;;;2.50;65.60;;;;;;5029053;28;20037;-56
2021/01/11 05:05:40;;;;;;;2.03;0.70;;;2.60;64.50;;;;;;5029245;28;20033;-59
2021/01/11 05:08:07;;;;;;;1.55;0.57;;;2.60;64.60;;;;;;5009695;28;20492;-53
2021/01/11 05:10:34;;;;;;;2.30;0.60;;;2.60;65.60;;;;;;5010369;28;20097;-56
2021/01/11 05:13:03;;;;;;;1.15;0.40;;;2.60;66.30;;;;;;5028195;28;20405;-56
2021/01/11 05:15:33;;;;;;;3.53;0.60;;;2.50;65.70;;;;;;5029834;28;20033;-56
2021/01/11 05:18:00;;;;;;;2.10;0.60;;;2.50;65.50;;;;;;5029358;28;20038;-55
2021/01/11 05:20:31;;;;;;;1.95;0.68;;;2.60;65.80;;;;;;5028212;28;20037;-56
2021/01/11 05:23:04;;;;;;;2.58;0.70;;;2.60;65.10;;;;;;5029389;28;20041;-57
2021/01/11 05:25:38;;;;;;;1.70;0.65;;;2.60;65.20;;;;;;5028861;28;20099;-55
2021/01/11 05:28:18;;;;;;;1.42;0.50;;;2.60;65.40;;;;;;5029563;28;20052;-55
2021/01/11 05:30:45;;;;;;;1.23;0.52;;;2.60;64.80;;;;;;5028516;28;20504;-56
2021/01/11 05:33:21;;;;;;;1.98;0.60;;;2.60;64.90;;;;;;5026863;28;20041;-54
2021/01/11 05:36:02;;;;;;;1.38;0.52;;;2.50;65.80;;;;;;5028088;28;20037;-57
2021/01/11 05:38:34;;;;;;;1.55;0.60;;;2.50;66.50;;;;;;5027910;28;20033;-56
2021/01/11 05:41:13;;;;;;;2.90;0.73;;;2.50;65.90;;;;;;5029033;28;20552;-57
2021/01/11 05:43:38;;;;;;;3.20;0.70;;;2.50;65.40;;;;;;5028303;28;20386;-56
2021/01/11 05:46:25;;;;;;;1.75;0.63;;;2.50;65.50;;;;;;5028947;28;20040;-55
2021/01/11 05:49:03;;;;;;;2.17;0.73;;;2.50;65.60;;;;;;5027768;28;20045;-55
2021/01/11 05:51:30;;;;;;;1.75;0.80;;;2.50;65.00;;;;;;5028548;28;20111;-56
2021/01/11 05:53:57;;;;;;;1.20;0.70;;;2.50;65.70;;;;;;5026398;28;20033;-55
2021/01/11 05:56:23;;;;;;;1.38;0.52;;;2.50;65.70;;;;;;5029137;28;20033;-56
2021/01/11 05:59:03;;;;;;;2.00;0.70;;;2.50;65.90;;;;;;5027585;28;20040;-56
2021/01/11 06:01:30;;;;;;;3.47;0.68;;;2.40;65.60;;;;;;5026524;28;20084;-53
2021/01/11 06:03:56;;;;;;;1.55;0.60;;;2.50;65.30;;;;;;5028774;28;20041;-53
2021/01/11 06:06:23;;;;;;;1.42;0.60;;;2.50;65.40;;;;;;5022264;28;20056;-56
2021/01/11 06:08:50;;;;;;;1.70;0.60;;;2.40;65.70;;;;;;5027497;28;20417;-53
2021/01/11 06:11:21;;;;;;;2.10;0.60;;;2.40;66.70;;;;;;5028917;28;20036;-55
2021/01/11 06:13:53;;;;;;;2.13;0.90;;;2.50;64.90;;;;;;5028646;28;20038;-56
2021/01/11 06:16:20;;;;;;;2.80;1.00;;;2.40;66.30;;;;;;5027498;28;20544;-55
2021/01/11 06:18:50;;;;;;;2.78;0.80;;;2.40;65.20;;;;;;5027165;28;20039;-57
2021/01/11 06:21:17;;;;;;;2.25;0.75;;;2.40;65.90;;;;;;5027472;28;20536;-54
2021/01/11 06:23:43;;;;;;;2.42;0.73;;;2.40;66.40;;;;;;5027520;28;20033;-54
2021/01/11 06:26:27;;;;;;;2.50;0.90;;;2.40;65.90;;;;;;5028811;28;20033;-55
2021/01/11 06:28:54;;;;;;;1.65;0.82;;;2.50;65.10;;;;;;5027132;28;20046;-57
2021/01/11 06:31:29;;;;;;;2.35;1.02;;;2.50;64.90;;;;;;5028391;28;20030;-56
2021/01/11 06:33:55;;;;;;;2.43;0.90;;;2.40;65.90;;;;;;5027515;28;20033;-55
2021/01/11 06:36:24;;;;;;;2.28;1.38;;;2.40;66.30;;;;;;5010600;28;20346;-56
2021/01/11 06:38:51;;;;;;;1.38;0.80;;;2.40;65.50;;;;;;5027378;28;20065;-53
2021/01/11 06:41:19;;;;;;;1.95;0.70;;;2.40;66.60;;;;;;5028538;28;20029;-56
2021/01/11 06:43:52;;;;;;;1.85;0.90;;;2.30;66.40;;;;;;5026943;28;20065;-57
2021/01/11 06:46:27;;;;;;;2.03;0.80;;;2.40;65.40;;;;;;5025222;28;20064;-55
2021/01/11 06:48:55;;;;;;;3.47;0.85;;;2.40;66.10;;;;;;5028031;28;20592;-55
2021/01/11 06:51:29;;;;;;;1.80;0.68;;;2.30;66.00;;;;;;5026985;28;20520;-56
2021/01/11 06:54:12;;;;;;;1.45;0.50;;;2.30;66.50;;;;;;5028594;28;20041;-57
2021/01/11 06:56:39;;;;;;;3.05;1.10;;;2.40;65.40;;;;;;5026904;28;20546;-53
2021/01/11 06:59:12;;;;;;;1.58;0.75;;;2.40;66.60;;;;;;5028436;28;20068;-55
2021/01/11 07:01:40;;;;;;;1.95;0.80;;;2.50;64.40;;;;;;5028339;28;20398;-55
2021/01/11 07:04:07;;;;;;;2.67;0.70;;;2.40;65.80;;;;;;5031231;28;20045;-54
2021/01/11 07:06:48;;;;;;;1.55;0.60;;;2.40;66.00;;;;;;5030632;28;20803;-57
2021/01/11 07:09:18;;;;;;;2.42;0.80;;;2.30;66.20;;;;;;5030433;28;20049;-57
2021/01/11 07:11:45;;;;;;;2.13;0.95;;;2.40;65.60;;;;;;5031754;28;20041;-56
2021/01/11 07:14:12;;;;;;;2.03;0.98;;;2.30;66.30;;;;;;5032046;28;20117;-55
2021/01/11 07:16:50;;;;;;;2.75;0.85;;;2.30;67.20;;;;;;5031366;28;20029;-55
2021/01/11 07:19:42;;;;;;;5.07;0.80;;;2.30;65.80;;;;;;5031615;28;20457;-56
2021/01/11 07:22:10;;;;;;;3.15;1.35;;;2.30;67.50;;;;;;5014055;28;20040;-55
2021/01/11 07:24:40;;;;;;;2.00;0.70;;;2.30;66.20;;;;;;5030179;28;20040;-51
2021/01/11 07:27:09;;;;;;;2.60;0.88;;;2.40;66.20;;;;;;5031967;28;20044;-55
2021/01/11 07:29:35;;;;;;;2.25;0.82;;;2.30;67.00;;;;;;5029159;28;20048;-53
2021/01/11 07:32:01;;;;;;;1.92;0.90;;;2.40;67.00;;;;;;5031405;28;20037;-56
2021/01/11 07:34:27;;;;;;;4.95;0.63;;;2.40;67.50;;;;;;5031310;28;20379;-55
2021/01/11 07:37:03;;;;;;;2.28;1.13;;;2.40;67.20;;;;;;5028175;28;20064;-58
2021/01/11 07:39:30;;;;;;;2.42;0.80;;;2.40;66.20;;;;;;5028811;28;20095;-57
2021/01/11 07:42:01;;;;;;;1.40;0.80;;;2.40;66.90;;;;;;5030581;28;20107;-53
2021/01/11 07:44:39;;;;;;;3.47;1.13;;;2.40;67.60;;;;;;5031195;28;20507;-56
2021/01/11 07:47:10;;;;;;;2.28;0.80;;;2.40;67.20;;;;;;5031347;28;20459;-56
2021/01/11 07:49:41;;;;;;;5.85;1.42;;;2.40;67.70;;;;;;5030322;28;20052;-55
2021/01/11 07:52:12;;;;;;;3.40;1.15;;;2.40;69.00;;;;;;5029872;28;20107;-49
2021/01/11 07:54:38;;;;;;;2.85;1.35;;;2.40;67.30;;;;;;5031016;28;20037;-52
2021/01/11 07:57:12;;;;;;;2.97;1.08;;;2.40;67.00;;;;;;5024815;28;20500;-56
2021/01/11 07:59:38;;;;;;;3.03;1.20;;;2.40;67.30;;;;;;5031195;28;20033;-55
2021/01/11 08:02:09;;;;;;;1.80;0.93;;;2.40;66.80;;;;;;5029783;28;20037;-54
2021/01/11 08:04:36;;;;;;;2.10;0.95;;;2.40;67.20;;;;;;5030786;28;20512;-55
2021/01/11 08:07:09;;;;;;;1.52;0.73;;;2.40;66.90;;;;;;5029714;28;20422;-55
2021/01/11 08:09:37;;;;;;;2.78;0.90;;;2.40;67.10;;;;;;5025475;28;20049;-53
2021/01/11 08:12:16;;;;;;;2.67;0.82;;;2.40;67.80;;;;;;5028394;28;20033;-56
2021/01/11 08:14:46;;;;;;;2.25;0.90;;;2.50;68.30;;;;;;5030226;28;20493;-55
2021/01/11 08:17:15;;;;;;;3.30;1.42;;;2.60;68.30;;;;;;5029042;28;20033;-53
2021/01/11 08:19:41;;;;;;;3.42;1.20;;;2.60;66.70;;;;;;5030849;28;20515;-55
2021/01/11 08:22:09;;;;;;;2.58;1.00;;;2.70;66.60;;;;;;5024806;28;20127;-56
2021/01/11 08:24:41;;;;;;;3.05;0.80;;;2.80;65.80;;;;;;5030266;28;20033;-54
2021/01/11 08:27:40;;;;;;;1.88;0.82;;;2.80;66.10;;;;;;5029578;28;20095;-56
2021/01/11 08:30:11;;;;;;;2.38;0.82;;;2.90;64.90;;;;;;5028055;28;20046;-55
2021/01/11 08:32:41;;;;;;;1.88;0.68;;;2.90;65.10;;;;;;5029576;28;20152;-55
2021/01/11 08:35:08;;;;;;;3.03;0.70;;;2.90;64.30;;;;;;5011947;28;20116;-57
2021/01/11 08:37:34;;;;;;;2.45;1.05;;;2.90;65.40;;;;;;5022328;28;20037;-56
2021/01/11 08:40:05;;;;;;;1.95;0.85;;;2.90;65.20;;;;;;5030063;28;20650;-54
2021/01/11 08:42:31;;;;;;;2.58;0.75;;;2.90;65.00;;;;;;5029825;28;20100;-57
2021/01/11 08:45:28;;;;;;;4.95;1.10;;;2.80;64.50;;;;;;5030115;28;20052;-57
2021/01/11 08:48:08;;;;;;;3.83;0.80;;;2.80;66.00;;;;;;5030205;28;20060;-57
2021/01/11 08:50:50;;;;;;;3.80;1.00;;;2.80;65.50;;;;;;5030495;28;20037;-55
2021/01/11 08:53:30;;;;;;;1.85;0.82;;;2.80;65.10;;;;;;5029906;28;20039;-57
2021/01/11 08:56:00;;;;;;;2.35;0.77;;;2.80;65.10;;;;;;5030023;28;20121;-54
2021/01/11 08:58:27;;;;;;;2.75;1.10;;;2.80;64.80;;;;;;5030256;28;20104;-54
2021/01/11 09:01:14;;;;;;;1.75;0.60;;;2.70;65.00;;;;;;5029787;28;20037;-57
2021/01/11 09:04:02;;;;;;;;;;;2.70;65.10;;;;;;5030161;28;20037;-55
2021/01/11 09:06:45;;;;;;;3.25;0.95;;;2.70;65.60;;;;;;5030047;28;19909;-57
2021/01/11 09:09:21;;;;;;;2.80;0.93;;;2.80;65.60;;;;;;5029777;28;20056;-56
2021/01/11 09:11:48;;;;;;;2.53;1.05;;;2.80;64.80;;;;;;5029442;28;20045;-53
2021/01/11 09:14:15;;;;;;;2.45;1.20;;;2.80;65.20;;;;;;5029860;28;20051;-56
2021/01/11 09:16:46;;;;;;;2.58;1.38;;;2.80;65.60;;;;;;5029508;28;20172;-57
2021/01/11 09:19:19;;;;;;;2.72;1.77;;;2.80;65.10;;;;;;5029413;28;20083;-57
2021/01/11 09:21:58;;;;;;;2.60;0.88;;;2.90;64.80;;;;;;5029553;28;20041;-55
2021/01/11 09:24:23;;;;;;;2.35;1.08;;;2.90;65.60;;;;;;5028055;28;20500;-56
2021/01/11 09:26:51;;;;;;;2.15;0.73;;;2.90;65.30;;;;;;5028644;28;20032;-55
2021/01/11 09:29:17;;;;;;;2.55;1.00;;;2.90;64.90;;;;;;5029372;28;20037;-55
2021/01/11 09:31:43;;;;;;;2.58;1.17;;;2.90;65.10;;;;;;5029444;28;20409;-56
2021/01/11 09:34:09;;;;;;;1.67;0.80;;;3.00;65.40;;;;;;5027682;28;20026;-55
2021/01/11 09:36:36;;;;;;;2.00;0.75;;;3.00;65.80;;;;;;5027856;28;20116;-53
2021/01/11 09:39:10;;;;;;;2.50;1.17;;;3.00;64.10;;;;;;5028873;28;20033;-57
2021/01/11 09:41:47;;;;;;;2.20;1.13;;;3.10;64.60;;;;;;5028762;28;20087;-58
2021/01/11 09:44:14;;;;;;;2.17;0.95;;;3.10;65.90;;;;;;5029154;28;20414;-56
2021/01/11 09:46:49;;;;;;;2.17;0.98;;;3.20;65.10;;;;;;5028946;28;20033;-56
2021/01/11 09:49:16;;;;;;;2.63;0.95;;;3.30;66.20;;;;;;5029019;28;20033;-52
2021/01/11 09:51:41;;;;;;;3.72;1.52;;;3.30;64.00;;;;;;5029213;28;20166;-56
2021/01/11 09:54:08;;;;;;;3.22;1.48;;;3.30;63.60;;;;;;5028787;28;20060;-56
2021/01/11 09:56:36;;;;;;;2.10;1.00;;;3.40;65.10;;;;;;5028859;28;20436;-57
2021/01/11 09:59:11;;;;;;;2.78;1.00;;;3.50;63.10;;;;;;5028797;28;20033;-57
2021/01/11 10:01:42;;;;;;;2.92;1.30;;;3.70;64.30;;;;;;5028695;28;20048;-56
2021/01/11 10:04:08;;;;;;;4.72;1.30;;;3.80;63.50;;;;;;5028572;28;20040;-56
2021/01/11 10:06:49;;;;;;;3.17;1.20;;;3.90;63.60;;;;;;5028832;28;20553;-56
2021/01/11 10:09:20;;;;;;;2.38;1.05;;;3.80;63.50;;;;;;5028591;28;20040;-54
2021/01/11 10:11:51;;;;;;;2.67;0.85;;;3.80;63.50;;;;;;5028717;28;20083;-54
2021/01/11 10:14:20;;;;;;;2.88;1.20;;;3.80;63.10;;;;;;5028779;28;20120;-53
2021/01/11 10:16:48;;;;;;;2.80;1.10;;;3.90;63.00;;;;;;5028764;28;20034;-56
2021/01/11 10:19:16;;;;;;;2.97;1.20;;;3.90;63.70;;;;;;5028743;28;20560;-57
2021/01/11 10:21:42;;;;;;;2.42;1.30;;;3.90;63.20;;;;;;5028717;28;20044;-57
2021/01/11 10:24:09;;;;;;;4.50;1.85;;;4.00;61.80;;;;;;5028359;28;20030;-55
2021/01/11 10:26:35;;;;;;;5.30;1.50;;;3.90;62.70;;;;;;5028347;28;20133;-59
2021/01/11 10:29:02;;;;;;;2.00;0.90;;;4.00;62.70;;;;;;5028197;28;20038;-56
2021/01/11 10:31:28;;;;;;;3.13;1.10;;;4.10;62.50;;;;;;5028505;28;20493;-57
2021/01/11 10:33:53;;;;;;;1.85;0.80;;;4.10;62.30;;;;;;5028572;28;20060;-57
2021/01/11 10:36:19;;;;;;;2.42;0.73;;;4.20;62.50;;;;;;5028589;28;20037;-57
2021/01/11 10:38:45;;;;;;;2.25;1.20;;;4.30;61.40;;;;;;5032472;28;20033;-56
2021/01/11 10:41:16;;;;;;;2.83;1.23;;;4.20;59.80;;;;;;5032457;28;20116;-57
2021/01/11 10:43:44;;;;;;;3.15;1.60;;;4.30;61.50;;;;;;5032120;28;20056;-54
2021/01/11 10:46:13;;;;;;;2.65;0.95;;;4.40;61.40;;;;;;5032575;28;20077;-57
2021/01/11 10:48:40;;;;;;;2.03;0.80;;;4.40;59.60;;;;;;5032306;28;20037;-58
2021/01/11 10:51:10;;;;;;;4.57;1.20;;;4.40;61.00;;;;;;5032490;28;20044;-56
2021/01/11 10:53:39;;;;;;;2.22;0.90;;;4.40;59.40;;;;;;5032484;28;20050;-56
2021/01/11 10:56:06;;;;;;;2.88;1.00;;;4.40;60.50;;;;;;5032196;28;20036;-54
2021/01/11 10:58:33;;;;;;;3.55;0.95;;;4.40;59.80;;;;;;5031991;28;20498;-56
2021/01/11 11:00:59;;;;;;;2.97;0.70;;;4.50;60.30;;;;;;5032229;28;20033;-57
2021/01/11 11:03:25;;;;;;;2.50;0.88;;;4.60;60.70;;;;;;5031937;28;20417;-53
2021/01/11 11:05:50;;;;;;;3.10;1.13;;;4.50;59.20;;;;;;5031957;28;20033;-56
2021/01/11 11:08:16;;;;;;;2.25;0.80;;;4.40;60.80;;;;;;5031922;28;20033;-56
2021/01/11 11:10:42;;;;;;;3.95;1.13;;;4.40;59.50;;;;;;5031684;28;20037;-57
2021/01/11 11:13:08;;;;;;;3.17;0.93;;;4.30;60.60;;;;;;5032268;28;20030;-56
2021/01/11 11:15:34;;;;;;;2.20;0.90;;;4.30;60.80;;;;;;5031913;28;20045;-52
2021/01/11 11:17:59;;;;;;;2.10;0.88;;;4.40;59.90;;;;;;5031687;28;20037;-57
2021/01/11 11:20:25;;;;;;;2.30;1.00;;;4.50;59.70;;;;;;5031745;28;20086;-55
2021/01/11 11:22:54;;;;;;;1.90;0.80;;;4.70;59.50;;;;;;5031862;28;20509;-55
2021/01/11 11:25:20;;;;;;;1.67;0.70;;;4.70;58.90;;;;;;5031587;28;20033;-53
2021/01/11 11:27:49;;;;;;;4.82;2.00;;;4.60;58.20;;;;;;5032001;28;20440;-56
2021/01/11 11:30:16;;;;;;;2.67;1.00;;;4.40;58.10;;;;;;5031401;28;20457;-58
2021/01/11 11:32:46;;;;;;;3.60;1.15;;;4.50;58.40;;;;;;5031348;28;20026;-55
2021/01/11 11:35:12;;;;;;;3.03;1.17;;;4.60;59.20;;;;;;5031420;28;20044;-54
2021/01/11 11:37:38;;;;;;;2.28;0.80;;;4.50;58.40;;;;;;5031299;28;20032;-57
2021/01/11 11:40:05;;;;;;;2.08;0.93;;;4.60;59.00;;;;;;5031172;28;20142;-55
2021/01/11 11:42:35;;;;;;;2.33;1.08;;;4.60;58.20;;;;;;5031078;28;20091;-57
2021/01/11 11:45:01;;;;;;;1.90;0.60;;;4.60;58.10;;;;;;5031364;28;20366;-56
2021/01/11 11:47:30;;;;;;;5.60;0.75;;;4.60;58.80;;;;;;5031389;28;20045;-57
2021/01/11 11:49:56;;;;;;;2.20;0.80;;;4.60;59.10;;;;;;5030660;28;20029;-58
2021/01/11 11:52:22;;;;;;;2.90;1.17;;;4.80;58.10;;;;;;5031014;28;20029;-57
2021/01/11 11:54:47;;;;;;;2.03;0.50;;;4.90;57.70;;;;;;5030959;28;20172;-57
2021/01/11 11:57:13;;;;;;;2.38;0.73;;;5.00;58.20;;;;;;5030903;28;20105;-57
2021/01/11 11:59:39;;;;;;;2.33;0.50;;;5.10;56.70;;;;;;5031107;28;20033;-57
2021/01/11 12:02:05;;;;;;;2.22;0.50;;;5.10;57.20;;;;;;5031057;28;20497;-56
2021/01/11 12:04:31;;;;;;;2.33;0.50;;;5.20;56.80;;;;;;5031342;28;20029;-49
2021/01/11 12:06:56;;;;;;;1.08;0.47;;;5.20;57.10;;;;;;5030624;28;20542;-56
2021/01/11 12:09:22;;;;;;;1.58;0.50;;;5.20;58.10;;;;;;5031231;28;20046;-55
2021/01/11 12:11:52;;;;;;;1.45;0.70;;;5.30;56.60;;;;;;5030739;28;20519;-56
2021/01/11 12:14:18;;;;;;;2.25;0.77;;;5.30;57.60;;;;;;5030714;28;20032;-56
2021/01/11 12:16:48;;;;;;;2.25;1.30;;;5.20;57.20;;;;;;5030866;28;20037;-52
2021/01/11 12:19:14;;;;;;;5.25;2.05;;;5.10;57.10;;;;;;5030638;28;20515;-57
2021/01/11 12:21:40;;;;;;;3.40;1.40;;;4.90;57.20;;;;;;5030527;28;20064;-55
2021/01/11 12:24:09;;;;;;;2.10;0.60;;;4.80;57.60;;;;;;5031183;28;20021;-56
2021/01/11 12:26:38;;;;;;;2.58;1.10;;;4.90;57.60;;;;;;5030684;28;20395;-55
2021/01/11 12:29:04;;;;;;;3.13;1.13;;;4.80;57.80;;;;;;5030689;28;20041;-55
2021/01/11 12:31:31;;;;;;;1.48;0.68;;;4.70;58.10;;;;;;5030702;28;20033;-57
2021/01/11 12:33:57;;;;;;;3.17;1.27;;;4.70;57.20;;;;;;5030252;28;20689;-55
2021/01/11 12:36:30;;;;;;;1.65;0.50;;;4.70;58.10;;;;;;5026205;28;20285;-56
2021/01/11 12:38:57;;;;;;;1.98;0.50;;;4.70;57.10;;;;;;5026128;28;22309;-55
2021/01/11 12:41:24;;;;;;;2.58;1.02;;;4.70;57.00;;;;;;5023031;28;20509;-54
2021/01/11 12:43:50;;;;;;;2.28;0.90;;;4.80;57.50;;;;;;5023565;28;20049;-53
2021/01/11 12:46:18;;;;;;;1.88;0.50;;;4.80;57.30;;;;;;5026393;28;20025;-56
2021/01/11 12:48:45;;;;;;;1.85;0.93;;;4.90;56.50;;;;;;5027222;28;20048;-54
2021/01/11 12:51:15;;;;;;;2.22;0.80;;;4.80;56.50;;;;;;5028933;28;20115;-54
2021/01/11 12:53:44;;;;;;;1.73;0.73;;;4.80;56.30;;;;;;5023927;28;20145;-56
2021/01/11 12:56:21;;;;;;;1.45;0.85;;;4.80;56.70;;;;;;5024443;28;20029;-55
2021/01/11 12:58:52;;;;;;;1.83;0.57;;;4.90;57.20;;;;;;5026978;28;20057;-54
2021/01/11 13:01:23;;;;;;;2.63;0.73;;;4.90;57.30;;;;;;5029132;28;20029;-56
2021/01/11 13:03:50;;;;;;;3.03;0.75;;;4.90;57.90;;;;;;5029766;28;20064;-56
2021/01/11 13:06:26;;;;;;;3.15;0.82;;;5.10;58.80;;;;;;5029708;28;20065;-57
2021/01/11 13:08:51;;;;;;;3.22;0.80;;;5.10;59.20;;;;;;5029541;28;20509;-57
2021/01/11 13:11:19;;;;;;;2.15;0.70;;;5.20;59.10;;;;;;5029543;28;20037;-57